sensor_id;sensor_type;location;lat;lon;timestamp;P1;durP1;ratioP1;P2;durP2;ratioP2
69323;SDS011;56470;47.350;8.718;2023-02-14T00:00:34;20.37;;;8.93;;
69323;SDS011;56470;47.350;8.718;2023-02-14T00:03:00;19.07;;;8.13;;
69323;SDS011;56470;47.350;8.718;2023-02-14T00:05:25;23.20;;;10.10;;
69323;SDS011;56470;47.350;8.718;2023-02-14T00:07:50;21.63;;;9.97;;
69323;SDS011;56470;47.350;8.718;2023-02-14T00:10:16;26.90;;;10.23;;
69323;SDS011;56470;47.350;8.718;2023-02-14T00:12:41;24.70;;;9.87;;
69323;SDS011;56470;47.350;8.718;2023-02-14T00:15:07;22.90;;;8.57;;
69323;SDS011;56470;47.350;8.718;2023-02-14T00:17:53;23.83;;;9.33;;
69323;SDS011;56470;47.350;8.718;2023-02-14T00:20:22;21.42;;;8.65;;
69323;SDS011;56470;47.350;8.718;2023-02-14T00:22:48;24.77;;;9.32;;
69323;SDS011;56470;47.350;8.718;2023-02-14T00:25:14;23.50;;;10.30;;
69323;SDS011;56470;47.350;8.718;2023-02-14T00:27:40;24.93;;;9.57;;
69323;SDS011;56470;47.350;8.718;2023-02-14T00:30:06;22.63;;;9.38;;
69323;SDS011;56470;47.350;8.718;2023-02-14T00:32:32;20.08;;;9.73;;
69323;SDS011;56470;47.350;8.718;2023-02-14T00:34:58;22.57;;;9.77;;
69323;SDS011;56470;47.350;8.718;2023-02-14T00:37:24;21.85;;;10.07;;
69323;SDS011;56470;47.350;8.718;2023-02-14T00:39:49;21.93;;;9.93;;
69323;SDS011;56470;47.350;8.718;2023-02-14T00:42:15;17.57;;;8.63;;
69323;SDS011;56470;47.350;8.718;2023-02-14T00:44:40;21.97;;;8.97;;
69323;SDS011;56470;47.350;8.718;2023-02-14T00:47:06;21.87;;;9.77;;
69323;SDS011;56470;47.350;8.718;2023-02-14T00:49:31;18.90;;;9.10;;
69323;SDS011;56470;47.350;8.718;2023-02-14T00:51:57;19.88;;;9.10;;
69323;SDS011;56470;47.350;8.718;2023-02-14T00:54:22;23.53;;;9.47;;
69323;SDS011;56470;47.350;8.718;2023-02-14T00:56:47;19.37;;;8.07;;
69323;SDS011;56470;47.350;8.718;2023-02-14T00:59:13;21.93;;;9.40;;
69323;SDS011;56470;47.350;8.718;2023-02-14T01:01:38;23.93;;;9.80;;
69323;SDS011;56470;47.350;8.718;2023-02-14T01:04:04;22.77;;;9.88;;
69323;SDS011;56470;47.350;8.718;2023-02-14T01:06:30;24.10;;;11.48;;
69323;SDS011;56470;47.350;8.718;2023-02-14T01:08:55;20.13;;;9.43;;
69323;SDS011;56470;47.350;8.718;2023-02-14T01:11:22;24.17;;;9.73;;
69323;SDS011;56470;47.350;8.718;2023-02-14T01:13:48;23.53;;;9.47;;
69323;SDS011;56470;47.350;8.718;2023-02-14T01:16:16;21.17;;;9.63;;
69323;SDS011;56470;47.350;8.718;2023-02-14T01:18:43;17.98;;;8.05;;
69323;SDS011;56470;47.350;8.718;2023-02-14T01:21:10;21.42;;;9.50;;
69323;SDS011;56470;47.350;8.718;2023-02-14T01:23:42;21.77;;;9.13;;
69323;SDS011;56470;47.350;8.718;2023-02-14T01:26:08;20.07;;;9.87;;
69323;SDS011;56470;47.350;8.718;2023-02-14T01:28:34;19.08;;;8.52;;
69323;SDS011;56470;47.350;8.718;2023-02-14T01:31:06;23.10;;;9.37;;
69323;SDS011;56470;47.350;8.718;2023-02-14T01:33:37;19.17;;;9.82;;
69323;SDS011;56470;47.350;8.718;2023-02-14T01:36:03;17.85;;;9.38;;
69323;SDS011;56470;47.350;8.718;2023-02-14T01:38:28;20.17;;;9.40;;
69323;SDS011;56470;47.350;8.718;2023-02-14T01:40:54;22.23;;;10.60;;
69323;SDS011;56470;47.350;8.718;2023-02-14T01:43:19;23.10;;;9.40;;
69323;SDS011;56470;47.350;8.718;2023-02-14T01:45:45;20.57;;;8.97;;
69323;SDS011;56470;47.350;8.718;2023-02-14T01:48:10;18.97;;;9.03;;
69323;SDS011;56470;47.350;8.718;2023-02-14T01:50:37;18.80;;;8.88;;
69323;SDS011;56470;47.350;8.718;2023-02-14T01:53:07;25.17;;;11.07;;
69323;SDS011;56470;47.350;8.718;2023-02-14T01:55:40;23.67;;;11.35;;
69323;SDS011;56470;47.350;8.718;2023-02-14T01:58:10;19.37;;;9.30;;
69323;SDS011;56470;47.350;8.718;2023-02-14T02:00:39;24.50;;;10.07;;
69323;SDS011;56470;47.350;8.718;2023-02-14T02:03:34;19.17;;;8.98;;
69323;SDS011;56470;47.350;8.718;2023-02-14T02:06:12;17.67;;;8.77;;
69323;SDS011;56470;47.350;8.718;2023-02-14T02:08:42;19.30;;;9.68;;
69323;SDS011;56470;47.350;8.718;2023-02-14T02:11:17;17.13;;;8.70;;
69323;SDS011;56470;47.350;8.718;2023-02-14T02:13:43;19.60;;;8.97;;
69323;SDS011;56470;47.350;8.718;2023-02-14T02:24:21;20.20;;;9.00;;
69323;SDS011;56470;47.350;8.718;2023-02-14T02:27:05;22.33;;;8.52;;
69323;SDS011;56470;47.350;8.718;2023-02-14T02:37:59;23.10;;;9.05;;
69323;SDS011;56470;47.350;8.718;2023-02-14T02:40:40;20.80;;;9.38;;
69323;SDS011;56470;47.350;8.718;2023-02-14T02:46:01;21.27;;;8.17;;
69323;SDS011;56470;47.350;8.718;2023-02-14T02:52:22;18.92;;;7.90;;
69323;SDS011;56470;47.350;8.718;2023-02-14T02:55:13;18.42;;;9.07;;
69323;SDS011;56470;47.350;8.718;2023-02-14T02:57:43;21.60;;;9.18;;
69323;SDS011;56470;47.350;8.718;2023-02-14T03:00:10;19.70;;;9.70;;
69323;SDS011;56470;47.350;8.718;2023-02-14T03:02:38;21.38;;;8.52;;
69323;SDS011;56470;47.350;8.718;2023-02-14T03:05:26;18.90;;;8.65;;
69323;SDS011;56470;47.350;8.718;2023-02-14T03:07:52;16.85;;;7.80;;
69323;SDS011;56470;47.350;8.718;2023-02-14T03:10:19;21.83;;;9.03;;
69323;SDS011;56470;47.350;8.718;2023-02-14T03:26:27;17.25;;;7.28;;
69323;SDS011;56470;47.350;8.718;2023-02-14T03:32:37;17.13;;;8.33;;
69323;SDS011;56470;47.350;8.718;2023-02-14T03:35:11;17.30;;;7.75;;
69323;SDS011;56470;47.350;8.718;2023-02-14T03:37:44;18.73;;;8.85;;
69323;SDS011;56470;47.350;8.718;2023-02-14T03:43:25;17.13;;;8.38;;
69323;SDS011;56470;47.350;8.718;2023-02-14T03:46:04;21.47;;;8.33;;
69323;SDS011;56470;47.350;8.718;2023-02-14T03:48:31;17.85;;;7.78;;
69323;SDS011;56470;47.350;8.718;2023-02-14T03:50:58;16.20;;;8.15;;
69323;SDS011;56470;47.350;8.718;2023-02-14T03:53:26;19.25;;;8.90;;
69323;SDS011;56470;47.350;8.718;2023-02-14T03:55:57;17.83;;;8.43;;
69323;SDS011;56470;47.350;8.718;2023-02-14T03:58:29;16.17;;;7.10;;
69323;SDS011;56470;47.350;8.718;2023-02-14T04:01:03;15.52;;;7.47;;
69323;SDS011;56470;47.350;8.718;2023-02-14T04:03:34;19.05;;;8.93;;
69323;SDS011;56470;47.350;8.718;2023-02-14T04:06:04;17.40;;;8.52;;
69323;SDS011;56470;47.350;8.718;2023-02-14T04:08:30;16.23;;;8.17;;
69323;SDS011;56470;47.350;8.718;2023-02-14T04:10:56;19.57;;;9.10;;
69323;SDS011;56470;47.350;8.718;2023-02-14T04:13:24;18.63;;;7.78;;
69323;SDS011;56470;47.350;8.718;2023-02-14T04:15:50;18.50;;;8.43;;
69323;SDS011;56470;47.350;8.718;2023-02-14T04:18:15;16.27;;;8.07;;
69323;SDS011;56470;47.350;8.718;2023-02-14T04:20:59;19.23;;;8.80;;
69323;SDS011;56470;47.350;8.718;2023-02-14T04:23:25;19.57;;;8.67;;
69323;SDS011;56470;47.350;8.718;2023-02-14T04:25:50;19.37;;;8.13;;
69323;SDS011;56470;47.350;8.718;2023-02-14T04:28:16;19.80;;;9.37;;
69323;SDS011;56470;47.350;8.718;2023-02-14T04:30:41;19.35;;;8.38;;
69323;SDS011;56470;47.350;8.718;2023-02-14T04:33:06;18.87;;;8.03;;
69323;SDS011;56470;47.350;8.718;2023-02-14T04:35:32;15.33;;;7.50;;
69323;SDS011;56470;47.350;8.718;2023-02-14T04:37:59;16.65;;;7.18;;
69323;SDS011;56470;47.350;8.718;2023-02-14T04:40:25;17.90;;;7.63;;
69323;SDS011;56470;47.350;8.718;2023-02-14T04:42:51;13.97;;;7.80;;
69323;SDS011;56470;47.350;8.718;2023-02-14T04:45:16;16.70;;;7.90;;
69323;SDS011;56470;47.350;8.718;2023-02-14T04:47:42;12.47;;;7.30;;
69323;SDS011;56470;47.350;8.718;2023-02-14T04:50:07;20.57;;;9.20;;
69323;SDS011;56470;47.350;8.718;2023-02-14T04:52:33;19.92;;;8.48;;
69323;SDS011;56470;47.350;8.718;2023-02-14T04:54:58;24.97;;;8.83;;
69323;SDS011;56470;47.350;8.718;2023-02-14T04:57:23;18.33;;;7.03;;
69323;SDS011;56470;47.350;8.718;2023-02-14T04:59:48;16.53;;;7.73;;
69323;SDS011;56470;47.350;8.718;2023-02-14T05:02:14;16.53;;;7.10;;
69323;SDS011;56470;47.350;8.718;2023-02-14T05:04:39;14.70;;;6.50;;
69323;SDS011;56470;47.350;8.718;2023-02-14T05:07:05;16.07;;;8.20;;
69323;SDS011;56470;47.350;8.718;2023-02-14T05:09:30;18.37;;;6.97;;
69323;SDS011;56470;47.350;8.718;2023-02-14T05:11:55;16.17;;;7.87;;
69323;SDS011;56470;47.350;8.718;2023-02-14T05:14:21;17.67;;;7.38;;
69323;SDS011;56470;47.350;8.718;2023-02-14T05:16:46;19.50;;;8.30;;
69323;SDS011;56470;47.350;8.718;2023-02-14T05:19:11;15.83;;;7.93;;
69323;SDS011;56470;47.350;8.718;2023-02-14T05:21:37;16.10;;;7.50;;
69323;SDS011;56470;47.350;8.718;2023-02-14T05:24:03;15.38;;;7.10;;
69323;SDS011;56470;47.350;8.718;2023-02-14T05:26:29;18.80;;;8.67;;
69323;SDS011;56470;47.350;8.718;2023-02-14T05:28:54;17.63;;;8.53;;
69323;SDS011;56470;47.350;8.718;2023-02-14T05:31:20;17.75;;;7.80;;
69323;SDS011;56470;47.350;8.718;2023-02-14T05:33:48;17.97;;;7.53;;
69323;SDS011;56470;47.350;8.718;2023-02-14T05:36:14;17.17;;;8.32;;
69323;SDS011;56470;47.350;8.718;2023-02-14T05:38:39;17.50;;;8.37;;
69323;SDS011;56470;47.350;8.718;2023-02-14T05:41:04;18.07;;;7.23;;
69323;SDS011;56470;47.350;8.718;2023-02-14T05:43:30;15.53;;;6.77;;
69323;SDS011;56470;47.350;8.718;2023-02-14T05:45:56;13.55;;;6.65;;
69323;SDS011;56470;47.350;8.718;2023-02-14T05:48:21;18.92;;;8.38;;
69323;SDS011;56470;47.350;8.718;2023-02-14T05:50:47;17.47;;;7.87;;
69323;SDS011;56470;47.350;8.718;2023-02-14T05:53:12;15.17;;;7.07;;
69323;SDS011;56470;47.350;8.718;2023-02-14T05:55:38;15.77;;;6.88;;
69323;SDS011;56470;47.350;8.718;2023-02-14T05:58:06;18.43;;;8.13;;
69323;SDS011;56470;47.350;8.718;2023-02-14T06:00:32;15.32;;;6.93;;
69323;SDS011;56470;47.350;8.718;2023-02-14T06:02:58;15.25;;;7.65;;
69323;SDS011;56470;47.350;8.718;2023-02-14T06:05:23;5.80;;;3.27;;
69323;SDS011;56470;47.350;8.718;2023-02-14T06:07:49;18.13;;;9.37;;
69323;SDS011;56470;47.350;8.718;2023-02-14T06:10:18;2.70;;;1.70;;
69323;SDS011;56470;47.350;8.718;2023-02-14T06:12:45;9.68;;;4.50;;
69323;SDS011;56470;47.350;8.718;2023-02-14T06:15:12;7.53;;;4.43;;
69323;SDS011;56470;47.350;8.718;2023-02-14T06:17:37;10.98;;;5.03;;
69323;SDS011;56470;47.350;8.718;2023-02-14T06:20:02;11.00;;;6.27;;
69323;SDS011;56470;47.350;8.718;2023-02-14T06:22:28;15.87;;;6.97;;
69323;SDS011;56470;47.350;8.718;2023-02-14T06:24:53;11.53;;;5.80;;
69323;SDS011;56470;47.350;8.718;2023-02-14T06:27:19;10.48;;;4.22;;
69323;SDS011;56470;47.350;8.718;2023-02-14T06:29:44;4.70;;;3.10;;
69323;SDS011;56470;47.350;8.718;2023-02-14T06:32:09;15.33;;;7.73;;
69323;SDS011;56470;47.350;8.718;2023-02-14T06:34:34;9.47;;;5.23;;
69323;SDS011;56470;47.350;8.718;2023-02-14T06:37:00;12.63;;;7.77;;
69323;SDS011;56470;47.350;8.718;2023-02-14T06:39:25;18.37;;;8.30;;
69323;SDS011;56470;47.350;8.718;2023-02-14T06:41:51;18.38;;;8.73;;
69323;SDS011;56470;47.350;8.718;2023-02-14T06:44:16;10.70;;;5.97;;
69323;SDS011;56470;47.350;8.718;2023-02-14T06:46:41;10.53;;;5.67;;
69323;SDS011;56470;47.350;8.718;2023-02-14T06:49:08;15.53;;;7.97;;
69323;SDS011;56470;47.350;8.718;2023-02-14T06:51:33;14.07;;;6.90;;
69323;SDS011;56470;47.350;8.718;2023-02-14T06:53:59;14.57;;;6.90;;
69323;SDS011;56470;47.350;8.718;2023-02-14T06:56:24;13.13;;;6.50;;
69323;SDS011;56470;47.350;8.718;2023-02-14T06:58:49;15.93;;;8.33;;
69323;SDS011;56470;47.350;8.718;2023-02-14T07:01:15;9.47;;;5.23;;
69323;SDS011;56470;47.350;8.718;2023-02-14T07:03:40;17.60;;;6.80;;
69323;SDS011;56470;47.350;8.718;2023-02-14T07:06:06;14.48;;;7.72;;
69323;SDS011;56470;47.350;8.718;2023-02-14T07:08:31;18.83;;;8.13;;
69323;SDS011;56470;47.350;8.718;2023-02-14T07:10:57;14.55;;;7.03;;
69323;SDS011;56470;47.350;8.718;2023-02-14T07:13:22;15.03;;;6.73;;
69323;SDS011;56470;47.350;8.718;2023-02-14T07:15:48;17.50;;;8.50;;
69323;SDS011;56470;47.350;8.718;2023-02-14T07:18:14;15.50;;;7.50;;
69323;SDS011;56470;47.350;8.718;2023-02-14T07:20:39;18.70;;;8.70;;
69323;SDS011;56470;47.350;8.718;2023-02-14T07:23:04;14.70;;;7.13;;
69323;SDS011;56470;47.350;8.718;2023-02-14T07:25:30;16.97;;;8.30;;
69323;SDS011;56470;47.350;8.718;2023-02-14T07:27:55;22.00;;;10.20;;
69323;SDS011;56470;47.350;8.718;2023-02-14T07:30:21;14.27;;;6.20;;
69323;SDS011;56470;47.350;8.718;2023-02-14T07:32:46;16.17;;;7.07;;
69323;SDS011;56470;47.350;8.718;2023-02-14T07:35:12;13.85;;;7.05;;
69323;SDS011;56470;47.350;8.718;2023-02-14T07:37:37;14.13;;;6.67;;
69323;SDS011;56470;47.350;8.718;2023-02-14T07:40:03;16.47;;;7.23;;
69323;SDS011;56470;47.350;8.718;2023-02-14T07:42:29;13.63;;;6.50;;
69323;SDS011;56470;47.350;8.718;2023-02-14T07:44:55;16.17;;;6.73;;
69323;SDS011;56470;47.350;8.718;2023-02-14T07:47:20;15.77;;;7.23;;
69323;SDS011;56470;47.350;8.718;2023-02-14T07:49:45;14.02;;;7.43;;
69323;SDS011;56470;47.350;8.718;2023-02-14T07:52:11;16.70;;;7.43;;
69323;SDS011;56470;47.350;8.718;2023-02-14T07:54:36;16.00;;;6.83;;
69323;SDS011;56470;47.350;8.718;2023-02-14T07:57:03;14.90;;;7.22;;
69323;SDS011;56470;47.350;8.718;2023-02-14T07:59:29;14.68;;;7.18;;
69323;SDS011;56470;47.350;8.718;2023-02-14T08:01:54;15.37;;;7.43;;
69323;SDS011;56470;47.350;8.718;2023-02-14T08:04:20;16.90;;;7.90;;
69323;SDS011;56470;47.350;8.718;2023-02-14T08:06:49;16.63;;;8.32;;
69323;SDS011;56470;47.350;8.718;2023-02-14T08:09:15;15.35;;;7.55;;
69323;SDS011;56470;47.350;8.718;2023-02-14T08:11:57;17.07;;;7.33;;
69323;SDS011;56470;47.350;8.718;2023-02-14T08:14:41;15.88;;;6.55;;
69323;SDS011;56470;47.350;8.718;2023-02-14T08:17:07;18.58;;;7.47;;
69323;SDS011;56470;47.350;8.718;2023-02-14T08:19:34;19.83;;;7.97;;
69323;SDS011;56470;47.350;8.718;2023-02-14T08:22:00;14.23;;;6.72;;
69323;SDS011;56470;47.350;8.718;2023-02-14T08:24:29;14.77;;;6.77;;
69323;SDS011;56470;47.350;8.718;2023-02-14T08:26:55;14.45;;;6.30;;
69323;SDS011;56470;47.350;8.718;2023-02-14T08:29:20;16.73;;;8.27;;
69323;SDS011;56470;47.350;8.718;2023-02-14T08:31:45;15.73;;;7.60;;
69323;SDS011;56470;47.350;8.718;2023-02-14T08:34:11;15.87;;;7.73;;
69323;SDS011;56470;47.350;8.718;2023-02-14T08:36:37;15.82;;;6.50;;
69323;SDS011;56470;47.350;8.718;2023-02-14T08:39:03;18.87;;;7.93;;
69323;SDS011;56470;47.350;8.718;2023-02-14T08:41:30;14.55;;;6.97;;
69323;SDS011;56470;47.350;8.718;2023-02-14T08:43:55;17.15;;;7.32;;
69323;SDS011;56470;47.350;8.718;2023-02-14T08:46:24;17.87;;;7.70;;
69323;SDS011;56470;47.350;8.718;2023-02-14T08:48:49;18.25;;;8.15;;
69323;SDS011;56470;47.350;8.718;2023-02-14T08:51:15;14.50;;;7.47;;
69323;SDS011;56470;47.350;8.718;2023-02-14T08:53:41;22.08;;;8.60;;
69323;SDS011;56470;47.350;8.718;2023-02-14T08:56:11;19.08;;;7.47;;
69323;SDS011;56470;47.350;8.718;2023-02-14T08:58:38;19.63;;;8.93;;
69323;SDS011;56470;47.350;8.718;2023-02-14T09:01:14;18.23;;;8.65;;
69323;SDS011;56470;47.350;8.718;2023-02-14T09:03:41;20.80;;;9.23;;
69323;SDS011;56470;47.350;8.718;2023-02-14T09:06:07;16.48;;;8.25;;
69323;SDS011;56470;47.350;8.718;2023-02-14T09:08:35;15.10;;;7.30;;
69323;SDS011;56470;47.350;8.718;2023-02-14T09:11:14;14.30;;;7.13;;
69323;SDS011;56470;47.350;8.718;2023-02-14T09:13:46;16.27;;;6.85;;
69323;SDS011;56470;47.350;8.718;2023-02-14T09:16:12;15.63;;;7.43;;
69323;SDS011;56470;47.350;8.718;2023-02-14T09:18:40;18.10;;;7.82;;
69323;SDS011;56470;47.350;8.718;2023-02-14T09:21:06;17.67;;;7.77;;
69323;SDS011;56470;47.350;8.718;2023-02-14T09:23:33;18.02;;;8.57;;
69323;SDS011;56470;47.350;8.718;2023-02-14T09:26:01;13.07;;;6.35;;
69323;SDS011;56470;47.350;8.718;2023-02-14T09:28:28;14.37;;;5.80;;
69323;SDS011;56470;47.350;8.718;2023-02-14T09:30:53;19.17;;;8.93;;
69323;SDS011;56470;47.350;8.718;2023-02-14T09:33:19;18.27;;;8.37;;
69323;SDS011;56470;47.350;8.718;2023-02-14T09:35:44;15.90;;;7.83;;
69323;SDS011;56470;47.350;8.718;2023-02-14T09:38:09;10.27;;;6.23;;
69323;SDS011;56470;47.350;8.718;2023-02-14T09:40:45;12.70;;;6.38;;
69323;SDS011;56470;47.350;8.718;2023-02-14T09:43:15;16.05;;;7.72;;
69323;SDS011;56470;47.350;8.718;2023-02-14T09:45:49;15.95;;;7.35;;
69323;SDS011;56470;47.350;8.718;2023-02-14T09:48:25;15.32;;;6.70;;
69323;SDS011;56470;47.350;8.718;2023-02-14T09:50:56;15.30;;;6.43;;
69323;SDS011;56470;47.350;8.718;2023-02-14T09:53:28;14.55;;;7.13;;
69323;SDS011;56470;47.350;8.718;2023-02-14T09:58:35;15.82;;;7.40;;
69323;SDS011;56470;47.350;8.718;2023-02-14T10:01:23;14.40;;;7.13;;
69323;SDS011;56470;47.350;8.718;2023-02-14T10:04:18;14.30;;;7.13;;
69323;SDS011;56470;47.350;8.718;2023-02-14T10:06:54;11.80;;;6.15;;
69323;SDS011;56470;47.350;8.718;2023-02-14T10:15:01;15.20;;;8.30;;
69323;SDS011;56470;47.350;8.718;2023-02-14T10:20:29;16.70;;;8.05;;
69323;SDS011;56470;47.350;8.718;2023-02-14T10:23:00;21.83;;;9.07;;
69323;SDS011;56470;47.350;8.718;2023-02-14T10:28:29;24.60;;;9.98;;
69323;SDS011;56470;47.350;8.718;2023-02-14T10:31:00;20.57;;;9.10;;
69323;SDS011;56470;47.350;8.718;2023-02-14T10:33:29;18.95;;;8.05;;
69323;SDS011;56470;47.350;8.718;2023-02-14T10:36:08;15.82;;;7.72;;
69323;SDS011;56470;47.350;8.718;2023-02-14T10:38:55;18.77;;;8.77;;
69323;SDS011;56470;47.350;8.718;2023-02-14T10:41:51;18.60;;;8.18;;
69323;SDS011;56470;47.350;8.718;2023-02-14T10:47:27;20.88;;;8.90;;
69323;SDS011;56470;47.350;8.718;2023-02-14T10:50:20;20.35;;;9.15;;
69323;SDS011;56470;47.350;8.718;2023-02-14T10:53:08;15.77;;;8.43;;
69323;SDS011;56470;47.350;8.718;2023-02-14T10:55:53;19.42;;;8.95;;
69323;SDS011;56470;47.350;8.718;2023-02-14T10:58:23;21.03;;;9.87;;
69323;SDS011;56470;47.350;8.718;2023-02-14T11:03:20;21.08;;;8.25;;
69323;SDS011;56470;47.350;8.718;2023-02-14T11:05:46;22.83;;;9.05;;
69323;SDS011;56470;47.350;8.718;2023-02-14T11:08:13;17.77;;;8.30;;
69323;SDS011;56470;47.350;8.718;2023-02-14T11:10:43;17.07;;;8.27;;
69323;SDS011;56470;47.350;8.718;2023-02-14T11:15:57;21.55;;;8.52;;
69323;SDS011;56470;47.350;8.718;2023-02-14T11:18:26;19.52;;;7.45;;
69323;SDS011;56470;47.350;8.718;2023-02-14T11:21:01;19.02;;;7.47;;
69323;SDS011;56470;47.350;8.718;2023-02-14T11:23:35;20.33;;;9.83;;
69323;SDS011;56470;47.350;8.718;2023-02-14T11:29:02;18.60;;;9.23;;
69323;SDS011;56470;47.350;8.718;2023-02-14T11:31:36;20.52;;;9.30;;
69323;SDS011;56470;47.350;8.718;2023-02-14T11:35:04;24.83;;;10.23;;
69323;SDS011;56470;47.350;8.718;2023-02-14T11:37:05;18.97;;;8.90;;
69323;SDS011;56470;47.350;8.718;2023-02-14T11:40:01;21.25;;;9.82;;
69323;SDS011;56470;47.350;8.718;2023-02-14T11:42:42;21.35;;;10.50;;
69323;SDS011;56470;47.350;8.718;2023-02-14T11:45:24;17.88;;;8.73;;
69323;SDS011;56470;47.350;8.718;2023-02-14T11:50:52;16.83;;;8.27;;
69323;SDS011;56470;47.350;8.718;2023-02-14T11:53:21;18.20;;;7.60;;
69323;SDS011;56470;47.350;8.718;2023-02-14T11:55:52;9.85;;;4.65;;
69323;SDS011;56470;47.350;8.718;2023-02-14T11:58:30;17.65;;;8.50;;
69323;SDS011;56470;47.350;8.718;2023-02-14T12:01:00;19.48;;;9.52;;
69323;SDS011;56470;47.350;8.718;2023-02-14T12:03:27;19.63;;;7.83;;
69323;SDS011;56470;47.350;8.718;2023-02-14T12:05:56;18.95;;;8.93;;
69323;SDS011;56470;47.350;8.718;2023-02-14T12:08:25;18.42;;;8.15;;
69323;SDS011;56470;47.350;8.718;2023-02-14T12:11:11;18.58;;;8.57;;
69323;SDS011;56470;47.350;8.718;2023-02-14T12:13:50;20.70;;;9.43;;
69323;SDS011;56470;47.350;8.718;2023-02-14T12:16:24;18.67;;;7.57;;
69323;SDS011;56470;47.350;8.718;2023-02-14T12:18:56;11.93;;;4.68;;
69323;SDS011;56470;47.350;8.718;2023-02-14T12:24:12;18.17;;;9.00;;
69323;SDS011;56470;47.350;8.718;2023-02-14T12:29:32;11.90;;;6.43;;
69323;SDS011;56470;47.350;8.718;2023-02-14T12:32:17;17.67;;;7.22;;
69323;SDS011;56470;47.350;8.718;2023-02-14T12:34:46;8.95;;;4.97;;
69323;SDS011;56470;47.350;8.718;2023-02-14T12:37:20;10.25;;;3.92;;
69323;SDS011;56470;47.350;8.718;2023-02-14T12:42:41;17.07;;;7.70;;
69323;SDS011;56470;47.350;8.718;2023-02-14T12:45:22;12.40;;;6.38;;
69323;SDS011;56470;47.350;8.718;2023-02-14T12:48:11;14.35;;;7.45;;
69323;SDS011;56470;47.350;8.718;2023-02-14T12:50:59;9.77;;;4.35;;
69323;SDS011;56470;47.350;8.718;2023-02-14T12:53:35;14.13;;;8.13;;
69323;SDS011;56470;47.350;8.718;2023-02-14T13:07:20;15.02;;;7.93;;
69323;SDS011;56470;47.350;8.718;2023-02-14T13:10:12;13.93;;;6.87;;
69323;SDS011;56470;47.350;8.718;2023-02-14T13:15:50;16.08;;;7.72;;
69323;SDS011;56470;47.350;8.718;2023-02-14T13:21:05;18.40;;;8.00;;
69323;SDS011;56470;47.350;8.718;2023-02-14T13:23:35;13.57;;;7.30;;
69323;SDS011;56470;47.350;8.718;2023-02-14T13:28:49;14.80;;;7.25;;
69323;SDS011;56470;47.350;8.718;2023-02-14T13:31:20;13.07;;;5.90;;
69323;SDS011;56470;47.350;8.718;2023-02-14T13:33:50;10.87;;;5.83;;
69323;SDS011;56470;47.350;8.718;2023-02-14T13:36:20;11.32;;;6.00;;
69323;SDS011;56470;47.350;8.718;2023-02-14T13:38:50;10.95;;;6.45;;
69323;SDS011;56470;47.350;8.718;2023-02-14T13:41:18;14.20;;;6.30;;
69323;SDS011;56470;47.350;8.718;2023-02-14T13:43:49;5.22;;;2.72;;
69323;SDS011;56470;47.350;8.718;2023-02-14T13:46:43;8.27;;;5.32;;
69323;SDS011;56470;47.350;8.718;2023-02-14T13:51:53;12.48;;;5.85;;
69323;SDS011;56470;47.350;8.718;2023-02-14T13:57:44;16.23;;;7.85;;
69323;SDS011;56470;47.350;8.718;2023-02-14T14:18:45;17.77;;;8.40;;
69323;SDS011;56470;47.350;8.718;2023-02-14T14:21:20;15.77;;;8.27;;
69323;SDS011;56470;47.350;8.718;2023-02-14T14:24:00;16.80;;;7.88;;
69323;SDS011;56470;47.350;8.718;2023-02-14T14:26:48;16.70;;;7.65;;
69323;SDS011;56470;47.350;8.718;2023-02-14T14:29:39;13.18;;;5.85;;
69323;SDS011;56470;47.350;8.718;2023-02-14T14:32:18;17.10;;;7.32;;
69323;SDS011;56470;47.350;8.718;2023-02-14T14:35:04;19.10;;;9.73;;
69323;SDS011;56470;47.350;8.718;2023-02-14T14:37:36;19.73;;;8.55;;
69323;SDS011;56470;47.350;8.718;2023-02-14T14:40:25;21.45;;;9.35;;
69323;SDS011;56470;47.350;8.718;2023-02-14T14:42:56;20.45;;;8.70;;
69323;SDS011;56470;47.350;8.718;2023-02-14T14:45:29;14.07;;;7.50;;
69323;SDS011;56470;47.350;8.718;2023-02-14T14:47:56;15.03;;;7.53;;
69323;SDS011;56470;47.350;8.718;2023-02-14T14:50:24;18.27;;;8.80;;
69323;SDS011;56470;47.350;8.718;2023-02-14T14:52:53;19.35;;;8.38;;
69323;SDS011;56470;47.350;8.718;2023-02-14T14:55:25;19.40;;;9.75;;
69323;SDS011;56470;47.350;8.718;2023-02-14T14:57:55;20.48;;;10.30;;
69323;SDS011;56470;47.350;8.718;2023-02-14T15:00:31;12.93;;;7.17;;
69323;SDS011;56470;47.350;8.718;2023-02-14T15:05:37;17.77;;;9.38;;
69323;SDS011;56470;47.350;8.718;2023-02-14T15:14:16;10.80;;;5.60;;
69323;SDS011;56470;47.350;8.718;2023-02-14T15:16:47;19.90;;;8.75;;
69323;SDS011;56470;47.350;8.718;2023-02-14T15:19:17;18.02;;;7.53;;
69323;SDS011;56470;47.350;8.718;2023-02-14T15:22:03;22.13;;;9.43;;
69323;SDS011;56470;47.350;8.718;2023-02-14T15:24:30;21.77;;;9.38;;
69323;SDS011;56470;47.350;8.718;2023-02-14T15:26:59;17.60;;;8.10;;
69323;SDS011;56470;47.350;8.718;2023-02-14T15:29:27;20.52;;;11.07;;
69323;SDS011;56470;47.350;8.718;2023-02-14T15:31:58;22.25;;;8.77;;
69323;SDS011;56470;47.350;8.718;2023-02-14T15:34:31;20.52;;;10.05;;
69323;SDS011;56470;47.350;8.718;2023-02-14T15:37:02;22.50;;;9.68;;
69323;SDS011;56470;47.350;8.718;2023-02-14T15:39:49;25.60;;;10.10;;
69323;SDS011;56470;47.350;8.718;2023-02-14T15:42:21;22.70;;;10.55;;
69323;SDS011;56470;47.350;8.718;2023-02-14T15:45:11;23.23;;;9.70;;
69323;SDS011;56470;47.350;8.718;2023-02-14T15:47:52;24.45;;;10.27;;
69323;SDS011;56470;47.350;8.718;2023-02-14T15:50:42;21.48;;;9.02;;
69323;SDS011;56470;47.350;8.718;2023-02-14T15:55:47;21.92;;;9.43;;
69323;SDS011;56470;47.350;8.718;2023-02-14T15:58:16;19.65;;;9.48;;
69323;SDS011;56470;47.350;8.718;2023-02-14T16:00:44;22.80;;;9.73;;
69323;SDS011;56470;47.350;8.718;2023-02-14T16:03:13;22.73;;;10.00;;
69323;SDS011;56470;47.350;8.718;2023-02-14T16:05:52;23.40;;;10.07;;
69323;SDS011;56470;47.350;8.718;2023-02-14T16:10:57;17.40;;;8.05;;
69323;SDS011;56470;47.350;8.718;2023-02-14T16:13:39;14.43;;;7.10;;
69323;SDS011;56470;47.350;8.718;2023-02-14T16:16:09;19.08;;;8.43;;
69323;SDS011;56470;47.350;8.718;2023-02-14T16:18:37;14.33;;;7.83;;
69323;SDS011;56470;47.350;8.718;2023-02-14T16:21:15;19.90;;;7.57;;
69323;SDS011;56470;47.350;8.718;2023-02-14T16:23:43;18.25;;;8.27;;
69323;SDS011;56470;47.350;8.718;2023-02-14T16:29:02;16.00;;;7.85;;
69323;SDS011;56470;47.350;8.718;2023-02-14T16:31:28;14.67;;;7.83;;
69323;SDS011;56470;47.350;8.718;2023-02-14T16:33:54;18.38;;;7.90;;
69323;SDS011;56470;47.350;8.718;2023-02-14T16:36:25;17.93;;;8.20;;
69323;SDS011;56470;47.350;8.718;2023-02-14T16:38:52;19.27;;;8.23;;
69323;SDS011;56470;47.350;8.718;2023-02-14T16:41:21;18.90;;;9.10;;
69323;SDS011;56470;47.350;8.718;2023-02-14T16:43:48;19.27;;;8.10;;
69323;SDS011;56470;47.350;8.718;2023-02-14T16:46:15;16.73;;;8.57;;
69323;SDS011;56470;47.350;8.718;2023-02-14T16:48:43;18.95;;;8.43;;
69323;SDS011;56470;47.350;8.718;2023-02-14T16:51:12;19.67;;;9.27;;
69323;SDS011;56470;47.350;8.718;2023-02-14T16:53:38;20.25;;;9.68;;
69323;SDS011;56470;47.350;8.718;2023-02-14T16:56:06;21.93;;;9.80;;
69323;SDS011;56470;47.350;8.718;2023-02-14T16:58:33;21.55;;;8.95;;
69323;SDS011;56470;47.350;8.718;2023-02-14T17:01:00;30.45;;;13.40;;
69323;SDS011;56470;47.350;8.718;2023-02-14T17:03:26;28.10;;;11.90;;
69323;SDS011;56470;47.350;8.718;2023-02-14T17:05:51;20.08;;;9.70;;
69323;SDS011;56470;47.350;8.718;2023-02-14T17:08:19;22.70;;;10.50;;
69323;SDS011;56470;47.350;8.718;2023-02-14T17:10:45;19.30;;;9.23;;